Time,TemperatureF,DewpointF,PressureIn,WindDirection,WindDirectionDegrees,WindSpeedMPH,WindSpeedGustMPH,Humidity,HourlyPrecipIn,Conditions,Clouds,dailyrainin,SoftwareType,DateUTC
2013-05-08 00:00:00,35.7,27.6,30.25,WSW,240,0.0,0.0,72,0.00,,,0.00,Wunderground v.1.15,2013-05-08 08:00:00,
2013-05-08 00:10:00,35.2,27.7,30.25,WSW,240,0.0,0.0,74,0.00,,,0.00,Wunderground v.1.15,2013-05-08 08:10:00,
2013-05-08 00:20:00,35.5,27.7,30.25,WSW,240,0.0,0.0,73,0.00,,,0.00,Wunderground v.1.15,2013-05-08 08:20:00,
2013-05-08 00:30:00,34.5,27.7,30.25,WSW,240,0.0,0.0,76,0.00,,,0.00,Wunderground v.1.15,2013-05-08 08:30:00,
2013-05-08 00:40:00,33.9,27.8,30.25,WSW,240,0.0,0.0,78,0.00,,,0.00,Wunderground v.1.15,2013-05-08 08:40:00,
2013-05-08 00:50:00,33.5,27.7,30.25,WSW,240,0.0,0.0,79,0.00,,,0.00,Wunderground v.1.15,2013-05-08 08:50:00,
2013-05-08 01:00:00,33.1,27.6,30.26,WSW,240,0.0,0.0,80,0.00,,,0.00,Wunderground v.1.15,2013-05-08 09:00:00,
2013-05-08 01:10:00,32.7,27.2,30.26,WSW,240,0.0,0.0,80,0.00,,,0.00,Wunderground v.1.15,2013-05-08 09:10:00,
2013-05-08 01:20:00,32.8,28.5,30.26,WSW,240,0.0,0.0,84,0.00,,,0.00,Wunderground v.1.15,2013-05-08 09:20:00,
2013-05-08 01:30:00,32.5,27.6,30.26,WSW,240,0.0,1.0,82,0.00,,,0.00,Wunderground v.1.15,2013-05-08 09:30:00,
2013-05-08 01:40:00,32.6,27.4,30.26,WSW,240,0.0,0.0,81,0.00,,,0.00,Wunderground v.1.15,2013-05-08 09:40:00,
2013-05-08 01:50:00,31.7,27.4,30.26,WSW,240,0.0,0.0,84,0.00,,,0.00,Wunderground v.1.15,2013-05-08 09:50:00,
2013-05-08 02:00:00,31.5,26.9,30.26,WSW,240,0.0,2.0,83,0.00,,,0.00,Wunderground v.1.15,2013-05-08 10:00:00,
2013-05-08 02:10:00,31.3,27.0,30.26,WSW,240,0.0,2.0,84,0.00,,,0.00,Wunderground v.1.15,2013-05-08 10:10:00,
2013-05-08 02:20:00,31.7,27.1,30.26,WSW,240,1.0,2.0,83,0.00,,,0.00,Wunderground v.1.15,2013-05-08 10:20:00,
2013-05-08 02:30:00,31.5,26.9,30.26,WSW,240,1.0,1.0,83,0.00,,,0.00,Wunderground v.1.15,2013-05-08 10:30:00,
2013-05-08 02:40:00,30.7,26.4,30.26,WSW,240,0.0,2.0,84,0.00,,,0.00,Wunderground v.1.15,2013-05-08 10:40:00,
2013-05-08 02:50:00,30.2,25.9,30.26,WSW,240,0.0,2.0,84,0.00,,,0.00,Wunderground v.1.15,2013-05-08 10:50:00,
2013-05-08 03:00:00,29.8,25.8,30.26,WSW,240,0.0,2.0,85,0.00,,,0.00,Wunderground v.1.15,2013-05-08 11:00:00,
2013-05-08 03:10:00,29.5,25.8,30.26,WSW,240,0.0,2.0,86,0.00,,,0.00,Wunderground v.1.15,2013-05-08 11:10:00,
2013-05-08 03:20:00,29.5,26.1,30.26,WSW,240,0.0,2.0,87,0.00,,,0.00,Wunderground v.1.15,2013-05-08 11:20:00,
2013-05-08 03:30:00,29.3,26.2,30.26,WSW,240,0.0,2.0,88,0.00,,,0.00,Wunderground v.1.15,2013-05-08 11:30:00,
2013-05-08 03:40:00,29.2,26.4,30.26,WSW,240,0.0,2.0,89,0.00,,,0.00,Wunderground v.1.15,2013-05-08 11:40:00,
2013-05-08 03:50:00,29.0,25.3,30.26,WSW,240,0.0,2.0,86,0.00,,,0.00,Wunderground v.1.15,2013-05-08 11:50:00,
2013-05-08 04:00:00,28.5,24.8,30.26,WSW,240,0.0,0.0,86,0.00,,,0.00,Wunderground v.1.15,2013-05-08 12:00:00,
2013-05-08 04:10:00,28.1,24.7,30.26,WSW,240,0.0,0.0,87,0.00,,,0.00,Wunderground v.1.15,2013-05-08 12:10:00,
2013-05-08 04:20:00,29.0,25.1,30.26,WSW,240,0.0,0.0,85,0.00,,,0.00,Wunderground v.1.15,2013-05-08 12:20:00,
2013-05-08 04:30:00,29.6,24.8,30.26,WSW,240,1.0,2.0,82,0.00,,,0.00,Wunderground v.1.15,2013-05-08 12:30:00,
2013-05-08 04:40:00,29.6,24.8,30.26,WSW,240,0.0,0.0,82,0.00,,,0.00,Wunderground v.1.15,2013-05-08 12:40:00,
2013-05-08 04:50:00,29.4,24.3,30.26,WSW,240,0.0,0.0,81,0.00,,,0.00,Wunderground v.1.15,2013-05-08 12:50:00,
2013-05-08 05:00:00,29.3,24.2,30.26,WSW,240,0.0,3.0,81,0.00,,,0.00,Wunderground v.1.15,2013-05-08 13:00:00,
2013-05-08 05:10:00,28.6,24.4,30.26,WSW,240,0.0,3.0,84,0.00,,,0.00,Wunderground v.1.15,2013-05-08 13:10:00,
2013-05-08 05:20:00,27.6,24.2,30.26,WSW,240,0.0,3.0,87,0.00,,,0.00,Wunderground v.1.15,2013-05-08 13:20:00,
2013-05-08 05:30:00,27.3,23.9,30.26,WSW,240,0.0,3.0,87,0.00,,,0.00,Wunderground v.1.15,2013-05-08 13:30:00,
2013-05-08 05:40:00,28.0,23.8,30.26,WSW,240,1.0,3.0,84,0.00,,,0.00,Wunderground v.1.15,2013-05-08 13:40:00,
2013-05-08 05:50:00,28.2,23.7,30.26,WSW,240,1.0,1.0,83,0.00,,,0.00,Wunderground v.1.15,2013-05-08 13:50:00,
2013-05-08 06:00:00,28.3,24.1,30.27,WSW,241,0.0,0.0,84,0.00,,,0.00,Wunderground v.1.15,2013-05-08 14:00:00,
2013-05-08 06:10:00,28.1,23.9,30.26,WSW,241,0.0,0.0,84,0.00,,,0.00,Wunderground v.1.15,2013-05-08 14:10:00,
2013-05-08 06:20:00,28.1,24.2,30.27,WSW,241,0.0,0.0,85,0.00,,,0.00,Wunderground v.1.15,2013-05-08 14:20:00,
2013-05-08 06:30:00,28.4,24.5,30.27,WSW,241,0.0,0.0,85,0.00,,,0.00,Wunderground v.1.15,2013-05-08 14:30:00,
2013-05-08 06:40:00,28.8,24.3,30.27,WSW,241,0.0,0.0,83,0.00,,,0.00,Wunderground v.1.15,2013-05-08 14:40:00,
2013-05-08 06:50:00,29.1,24.6,30.27,WSW,241,0.0,0.0,83,0.00,,,0.00,Wunderground v.1.15,2013-05-08 14:50:00,
2013-05-08 07:00:00,29.4,24.6,30.27,WSW,241,0.0,2.0,82,0.00,,,0.00,Wunderground v.1.15,2013-05-08 15:00:00,
2013-05-08 07:10:00,30.2,25.4,30.27,WSW,241,0.0,2.0,82,0.00,,,0.00,Wunderground v.1.15,2013-05-08 15:10:00,
2013-05-08 07:20:00,30.7,25.3,30.27,WSW,242,0.0,2.0,80,0.00,,,0.00,Wunderground v.1.15,2013-05-08 15:20:00,
2013-05-08 07:30:00,30.9,25.2,30.27,WSW,243,0.0,2.0,79,0.00,,,0.00,Wunderground v.1.15,2013-05-08 15:30:00,
2013-05-08 07:40:00,31.2,25.7,30.27,NW,307,1.0,1.0,80,0.00,,,0.00,Wunderground v.1.15,2013-05-08 15:40:00,
2013-05-08 07:50:00,31.9,26.1,30.27,NW,304,0.0,2.0,79,0.00,,,0.00,Wunderground v.1.15,2013-05-08 15:50:00,
2013-05-08 08:00:00,32.8,26.7,30.27,NW,304,1.0,1.0,78,0.00,,,0.00,Wunderground v.1.15,2013-05-08 16:00:00,
2013-05-08 08:10:00,33.2,27.4,30.27,WNW,294,1.0,1.0,79,0.00,,,0.00,Wunderground v.1.15,2013-05-08 16:10:00,
2013-05-08 08:20:00,34.2,28.1,30.28,NW,322,0.0,2.0,78,0.00,,,0.00,Wunderground v.1.15,2013-05-08 16:20:00,
2013-05-08 08:30:00,34.9,27.8,30.28,NE,38,0.0,2.0,75,0.00,,,0.00,Wunderground v.1.15,2013-05-08 16:30:00,
2013-05-08 08:40:00,35.2,28.4,30.27,ENE,72,0.0,2.0,76,0.00,,,0.00,Wunderground v.1.15,2013-05-08 16:40:00,
2013-05-08 08:50:00,36.6,29.1,30.28,ESE,104,0.0,2.0,74,0.00,,,0.00,Wunderground v.1.15,2013-05-08 16:50:00,
2013-05-08 09:00:00,37.9,29.0,30.27,NNW,333,0.0,3.0,70,0.00,,,0.00,Wunderground v.1.15,2013-05-08 17:00:00,
2013-05-08 09:10:00,37.5,29.3,30.27,SE,144,0.0,3.0,72,0.00,,,0.00,Wunderground v.1.15,2013-05-08 17:10:00,
2013-05-08 09:20:00,38.5,29.9,30.27,SE,140,0.0,3.0,71,0.00,,,0.00,Wunderground v.1.15,2013-05-08 17:20:00,
2013-05-08 09:30:00,37.1,27.9,30.28,South,170,1.0,3.0,69,0.00,,,0.00,Wunderground v.1.15,2013-05-08 17:30:00,
2013-05-08 09:40:00,36.5,28.0,30.28,South,171,0.0,3.0,71,0.00,,,0.00,Wunderground v.1.15,2013-05-08 17:40:00,
2013-05-08 09:50:00,36.8,29.3,30.27,SSE,147,1.0,1.0,74,0.00,,,0.00,Wunderground v.1.15,2013-05-08 17:50:00,
2013-05-08 10:00:00,39.1,29.1,30.28,WSW,243,2.0,3.0,67,0.00,,,0.00,Wunderground v.1.15,2013-05-08 18:00:00,
2013-05-08 10:10:00,39.8,29.0,30.28,WSW,238,2.0,3.0,65,0.00,,,0.00,Wunderground v.1.15,2013-05-08 18:10:00,
2013-05-08 10:20:00,40.2,28.6,30.28,WSW,242,3.0,3.0,63,0.00,,,0.00,Wunderground v.1.15,2013-05-08 18:20:00,
2013-05-08 10:30:00,40.8,28.4,30.28,NW,315,4.0,4.0,61,0.00,,,0.00,Wunderground v.1.15,2013-05-08 18:30:00,
2013-05-08 10:40:00,41.5,28.2,30.28,WSW,237,3.0,4.0,59,0.00,,,0.00,Wunderground v.1.15,2013-05-08 18:40:00,
2013-05-08 10:50:00,42.0,28.3,30.27,WSW,247,3.0,3.0,58,0.00,,,0.00,Wunderground v.1.15,2013-05-08 18:50:00,
2013-05-08 11:00:00,42.8,28.2,30.27,West,259,3.0,8.0,56,0.00,,,0.00,Wunderground v.1.15,2013-05-08 19:00:00,
2013-05-08 11:10:00,43.1,28.0,30.27,NW,317,3.0,8.0,55,0.00,,,0.00,Wunderground v.1.15,2013-05-08 19:10:00,
2013-05-08 11:20:00,43.2,27.7,30.27,NW,320,4.0,8.0,54,0.00,,,0.00,Wunderground v.1.15,2013-05-08 19:20:00,
2013-05-08 11:30:00,44.4,28.3,30.27,NW,310,3.0,8.0,53,0.00,,,0.00,Wunderground v.1.15,2013-05-08 19:30:00,
2013-05-08 11:40:00,45.0,28.9,30.27,West,259,4.0,8.0,53,0.00,,,0.00,Wunderground v.1.15,2013-05-08 19:40:00,
2013-05-08 11:50:00,44.8,28.2,30.27,WSW,257,6.0,9.0,52,0.00,,,0.00,Wunderground v.1.15,2013-05-08 19:50:00,
2013-05-08 12:00:00,45.0,27.9,30.27,WSW,244,5.0,8.0,51,0.00,,,0.00,Wunderground v.1.15,2013-05-08 20:00:00,
2013-05-08 12:10:00,45.6,28.0,30.27,WSW,246,5.0,8.0,50,0.00,,,0.00,Wunderground v.1.15,2013-05-08 20:10:00,
2013-05-08 12:20:00,46.1,28.5,30.27,West,269,4.0,4.0,50,0.00,,,0.00,Wunderground v.1.15,2013-05-08 20:20:00,
2013-05-08 12:30:00,46.6,27.9,30.27,WSW,251,4.0,8.0,48,0.00,,,0.00,Wunderground v.1.15,2013-05-08 20:30:00,
2013-05-08 12:40:00,47.2,27.5,30.27,WNW,284,4.0,4.0,46,0.00,,,0.00,Wunderground v.1.15,2013-05-08 20:40:00,
2013-05-08 12:50:00,48.0,28.2,30.26,SW,235,4.0,8.0,46,0.00,,,0.00,Wunderground v.1.15,2013-05-08 20:50:00,
2013-05-08 13:00:00,48.6,27.6,30.26,WSW,252,4.0,9.0,44,0.00,,,0.00,Wunderground v.1.15,2013-05-08 21:00:00,
2013-05-08 13:10:00,48.7,28.3,30.26,West,271,5.0,9.0,45,0.00,,,0.00,Wunderground v.1.15,2013-05-08 21:10:00,
2013-05-08 13:20:00,49.0,27.5,30.26,WSW,254,4.0,9.0,43,0.00,,,0.00,Wunderground v.1.15,2013-05-08 21:20:00,
2013-05-08 13:30:00,49.6,26.8,30.26,WSW,246,5.0,9.0,41,0.00,,,0.00,Wunderground v.1.15,2013-05-08 21:30:00,
2013-05-08 13:40:00,49.9,25.9,30.25,WNW,287,6.0,9.0,39,0.00,,,0.00,Wunderground v.1.15,2013-05-08 21:40:00,
2013-05-08 13:50:00,49.6,26.2,30.25,NNW,327,7.0,7.0,40,0.00,,,0.00,Wunderground v.1.15,2013-05-08 21:50:00,
2013-05-08 14:00:00,50.3,26.9,30.25,WNW,296,6.0,10.0,40,0.00,,,0.00,Wunderground v.1.15,2013-05-08 22:00:00,
2013-05-08 14:10:00,50.4,27.0,30.25,WNW,302,7.0,10.0,40,0.00,,,0.00,Wunderground v.1.15,2013-05-08 22:10:00,
2013-05-08 14:20:00,50.7,26.6,30.25,WNW,294,7.0,7.0,39,0.00,,,0.00,Wunderground v.1.15,2013-05-08 22:20:00,
2013-05-08 14:30:00,50.9,26.8,30.25,NW,324,6.0,10.0,39,0.00,,,0.00,Wunderground v.1.15,2013-05-08 22:30:00,
2013-05-08 14:40:00,51.1,26.3,30.25,NW,309,7.0,7.0,38,0.00,,,0.00,Wunderground v.1.15,2013-05-08 22:40:00,
2013-05-08 14:50:00,51.4,27.9,30.25,NW,311,6.0,10.0,40,0.00,,,0.00,Wunderground v.1.15,2013-05-08 22:50:00,
2013-05-08 15:00:00,51.5,26.1,30.25,West,265,6.0,13.0,37,0.00,,,0.00,Wunderground v.1.15,2013-05-08 23:00:00,
2013-05-08 15:10:00,51.8,27.0,30.25,WSW,252,6.0,6.0,38,0.00,,,0.00,Wunderground v.1.15,2013-05-08 23:10:00,
2013-05-08 15:20:00,51.5,26.7,30.25,WNW,300,7.0,13.0,38,0.00,,,0.00,Wunderground v.1.15,2013-05-08 23:20:00,
2013-05-08 15:30:00,51.8,26.3,30.25,West,268,7.0,13.0,37,0.00,,,0.00,Wunderground v.1.15,2013-05-08 23:30:00,
2013-05-08 15:40:00,51.5,26.1,30.24,NW,323,7.0,7.0,37,0.00,,,0.00,Wunderground v.1.15,2013-05-08 23:40:00,
2013-05-08 15:50:00,51.9,27.1,30.24,NW,306,7.0,13.0,38,0.00,,,0.00,Wunderground v.1.15,2013-05-08 23:50:00,
2013-05-08 16:00:00,52.1,27.9,30.24,NW,306,6.0,13.0,39,0.00,,,0.00,Wunderground v.1.15,2013-05-09 00:00:00,
2013-05-08 16:10:00,52.4,26.2,30.24,NW,319,6.0,13.0,36,0.00,,,0.00,Wunderground v.1.15,2013-05-09 00:10:00,
2013-05-08 16:20:00,52.0,26.5,30.24,WNW,298,8.0,8.0,37,0.00,,,0.00,Wunderground v.1.15,2013-05-09 00:20:00,
2013-05-08 16:30:00,52.1,25.3,30.24,NW,305,8.0,8.0,35,0.00,,,0.00,Wunderground v.1.15,2013-05-09 00:30:00,
2013-05-08 16:40:00,52.3,25.4,30.23,WNW,288,7.0,13.0,35,0.00,,,0.00,Wunderground v.1.15,2013-05-09 00:40:00,
2013-05-08 16:50:00,52.3,24.7,30.24,WNW,285,7.0,13.0,34,0.00,,,0.00,Wunderground v.1.15,2013-05-09 00:50:00,
2013-05-08 17:00:00,52.7,26.5,30.23,WNW,296,7.0,15.0,36,0.00,,,0.00,Wunderground v.1.15,2013-05-09 01:00:00,
2013-05-08 17:10:00,52.6,25.7,30.23,NW,315,7.0,15.0,35,0.00,,,0.00,Wunderground v.1.15,2013-05-09 01:10:00,
2013-05-08 17:20:00,52.5,25.6,30.23,NW,310,8.0,8.0,35,0.00,,,0.00,Wunderground v.1.15,2013-05-09 01:20:00,
2013-05-08 17:30:00,52.9,26.0,30.23,NW,305,7.0,15.0,35,0.00,,,0.00,Wunderground v.1.15,2013-05-09 01:30:00,
2013-05-08 17:40:00,52.6,25.0,30.23,WNW,287,7.0,15.0,34,0.00,,,0.00,Wunderground v.1.15,2013-05-09 01:40:00,
2013-05-08 17:50:00,52.8,25.9,30.22,NW,313,7.0,15.0,35,0.00,,,0.00,Wunderground v.1.15,2013-05-09 01:50:00,
2013-05-08 18:00:00,52.7,25.8,30.22,NW,325,7.0,7.0,35,0.00,,,0.00,Wunderground v.1.15,2013-05-09 02:00:00,
2013-05-08 18:10:00,52.8,25.9,30.22,WNW,302,7.0,7.0,35,0.00,,,0.00,Wunderground v.1.15,2013-05-09 02:10:00,
2013-05-08 18:20:00,52.8,25.2,30.22,WNW,293,7.0,7.0,34,0.00,,,0.00,Wunderground v.1.15,2013-05-09 02:20:00,
2013-05-08 18:30:00,52.7,25.1,30.22,WNW,292,8.0,8.0,34,0.00,,,0.00,Wunderground v.1.15,2013-05-09 02:30:00,
2013-05-08 18:40:00,52.6,24.3,30.22,NW,322,7.0,15.0,33,0.00,,,0.00,Wunderground v.1.15,2013-05-09 02:40:00,
2013-05-08 18:50:00,52.7,24.4,30.22,NW,320,8.0,15.0,33,0.00,,,0.00,Wunderground v.1.15,2013-05-09 02:50:00,
2013-05-08 19:00:00,52.7,25.1,30.22,NW,307,7.0,13.0,34,0.00,,,0.00,Wunderground v.1.15,2013-05-09 03:00:00,
2013-05-08 19:10:00,52.7,24.4,30.22,West,277,7.0,13.0,33,0.00,,,0.00,Wunderground v.1.15,2013-05-09 03:10:00,
2013-05-08 19:20:00,52.5,24.2,30.22,NW,309,7.0,7.0,33,0.00,,,0.00,Wunderground v.1.15,2013-05-09 03:20:00,
2013-05-08 19:30:00,52.5,24.2,30.22,WNW,293,6.0,13.0,33,0.00,,,0.00,Wunderground v.1.15,2013-05-09 03:30:00,
2013-05-08 19:40:00,52.3,24.7,30.22,NW,307,7.0,7.0,34,0.00,,,0.00,Wunderground v.1.15,2013-05-09 03:40:00,
2013-05-08 19:50:00,52.2,24.6,30.22,NW,305,6.0,13.0,34,0.00,,,0.00,Wunderground v.1.15,2013-05-09 03:50:00,
2013-05-08 20:00:00,52.1,24.6,30.22,NW,311,6.0,6.0,34,0.00,,,0.00,Wunderground v.1.15,2013-05-09 04:00:00,
2013-05-08 20:10:00,51.9,24.4,30.21,NW,309,6.0,13.0,34,0.00,,,0.00,Wunderground v.1.15,2013-05-09 04:10:00,
2013-05-08 20:20:00,51.6,24.1,30.22,WNW,295,6.0,13.0,34,0.00,,,0.00,Wunderground v.1.15,2013-05-09 04:20:00,
2013-05-08 20:30:00,51.4,23.9,30.22,WNW,303,6.0,6.0,34,0.00,,,0.00,Wunderground v.1.15,2013-05-09 04:30:00,
2013-05-08 20:40:00,51.2,24.5,30.22,NW,317,6.0,13.0,35,0.00,,,0.00,Wunderground v.1.15,2013-05-09 04:40:00,
2013-05-08 20:50:00,50.8,24.1,30.22,NNW,330,6.0,13.0,35,0.00,,,0.00,Wunderground v.1.15,2013-05-09 04:50:00,
2013-05-08 21:00:00,50.4,24.4,30.22,WNW,301,6.0,6.0,36,0.00,,,0.00,Wunderground v.1.15,2013-05-09 05:00:00,
2013-05-08 21:10:00,50.1,24.8,30.22,WNW,299,5.0,5.0,37,0.00,,,0.00,Wunderground v.1.15,2013-05-09 05:10:00,
2013-05-08 21:20:00,49.7,25.1,30.22,NW,310,5.0,5.0,38,0.00,,,0.00,Wunderground v.1.15,2013-05-09 05:20:00,
2013-05-08 21:30:00,49.1,25.2,30.22,WNW,298,5.0,5.0,39,0.00,,,0.00,Wunderground v.1.15,2013-05-09 05:30:00,
2013-05-08 21:40:00,48.6,24.7,30.23,NW,319,4.0,4.0,39,0.00,,,0.00,Wunderground v.1.15,2013-05-09 05:40:00,
2013-05-08 21:50:00,48.5,24.6,30.23,NNW,327,4.0,12.0,39,0.00,,,0.00,Wunderground v.1.15,2013-05-09 05:50:00,
2013-05-08 22:00:00,47.9,24.7,30.23,NNW,348,2.0,11.0,40,0.00,,,0.00,Wunderground v.1.15,2013-05-09 06:00:00,
2013-05-08 22:10:00,47.2,24.7,30.23,NNW,347,3.0,11.0,41,0.00,,,0.00,Wunderground v.1.15,2013-05-09 06:10:00,
2013-05-08 22:20:00,47.3,24.2,30.24,NNW,348,2.0,2.0,40,0.00,,,0.00,Wunderground v.1.15,2013-05-09 06:20:00,
2013-05-08 22:30:00,47.2,23.5,30.24,NW,326,1.0,11.0,39,0.00,,,0.00,Wunderground v.1.15,2013-05-09 06:30:00,
2013-05-08 22:40:00,46.5,22.8,30.24,NW,314,2.0,11.0,39,0.00,,,0.00,Wunderground v.1.15,2013-05-09 06:40:00,
2013-05-08 22:50:00,46.0,23.0,30.24,NNW,333,2.0,2.0,40,0.00,,,0.00,Wunderground v.1.15,2013-05-09 06:50:00,
2013-05-08 23:00:00,45.3,24.1,30.24,NW,317,1.0,1.0,43,0.00,,,0.00,Wunderground v.1.15,2013-05-09 07:00:00,
2013-05-08 23:10:00,44.2,23.1,30.25,NW,317,0.0,6.0,43,0.00,,,0.00,Wunderground v.1.15,2013-05-09 07:10:00,
2013-05-08 23:20:00,43.5,22.5,30.25,NW,320,1.0,1.0,43,0.00,,,0.00,Wunderground v.1.15,2013-05-09 07:20:00,
2013-05-08 23:30:00,42.3,23.5,30.25,NW,320,0.0,6.0,47,0.00,,,0.00,Wunderground v.1.15,2013-05-09 07:30:00,
2013-05-08 23:40:00,42.2,24.4,30.25,NW,317,1.0,1.0,49,0.00,,,0.00,Wunderground v.1.15,2013-05-09 07:40:00,
2013-05-08 23:50:00,41.4,23.6,30.25,NW,317,0.0,6.0,49,0.00,,,0.00,Wunderground v.1.15,2013-05-09 07:50:00,